Terminal Aerodrome Forecast
Issued by NWS Wakefield, VA

Home | Current Version | Previous Version | Text Only | Print | Product List | Glossary On
Versions: 1 2 3 4 5 6 7 8 9 10 11 12 13 14 15 16 17 18 19 20 21 22 23 24 25 26 27 28 29 30 31 32 33 34 35 36 37 38
737
FTUS41 KAKQ 231731
TAFECG
TAF
KECG 231731Z 2318/2418 22012KT P6SM SCT015
     FM232000 24008KT P6SM BKN080
     FM240000 36005KT P6SM VCSH OVC050
     FM240300 28005KT 4SM -RA BR OVC015
     FM240500 29012KT 4SM -RA BR OVC007
     FM240700 29012KT P6SM OVC006
     FM241500 30012KT P6SM OVC010=

USA.gov is the U.S. government's official web portal to all federal, state and local government web resources and services.